createdAt,value
2022-10-18T00:01:17.921Z,11.46
2022-10-18T00:03:46.578Z,11.42
2022-10-18T00:06:15.276Z,11.43
2022-10-18T00:08:45.275Z,11.43
2022-10-18T00:11:13.954Z,11.44
2022-10-18T00:13:42.491Z,11.40
2022-10-18T00:16:14.075Z,11.29
2022-10-18T00:18:43.264Z,11.28
2022-10-18T00:21:14.153Z,11.29
2022-10-18T00:23:45.242Z,11.27
2022-10-18T00:26:16.225Z,11.21
2022-10-18T00:28:46.456Z,11.22
2022-10-18T00:31:16.387Z,11.19
2022-10-18T00:33:45.534Z,11.17
2022-10-18T00:36:15.504Z,11.21
2022-10-18T00:38:46.194Z,11.19
2022-10-18T00:41:23.726Z,11.18
2022-10-18T00:43:58.551Z,11.09
2022-10-18T00:46:29.717Z,11.13
2022-10-18T00:49:00.922Z,11.10
2022-10-18T00:51:35.284Z,11.03
2022-10-18T00:54:05.883Z,11.03
2022-10-18T00:56:35.684Z,10.99
2022-10-18T00:59:04.863Z,10.95
2022-10-18T01:01:33.661Z,10.94
2022-10-18T01:04:02.573Z,10.93
2022-10-18T01:06:32.117Z,10.90
2022-10-18T01:09:12.677Z,10.90
2022-10-18T01:12:20.390Z,10.89
2022-10-18T01:14:55.802Z,10.88
2022-10-18T01:17:33.288Z,10.88
2022-10-18T01:20:24.915Z,10.86
2022-10-18T01:22:59.992Z,10.75
2022-10-18T01:25:40.826Z,10.75
2022-10-18T01:28:21.562Z,10.71
2022-10-18T01:30:57.848Z,10.69
2022-10-18T01:33:38.424Z,10.66
2022-10-18T01:36:13.004Z,10.63
2022-10-18T01:38:44.501Z,10.61
2022-10-18T01:41:15.952Z,10.59
2022-10-18T01:43:48.143Z,10.55
2022-10-18T01:46:22.880Z,10.57
2022-10-18T01:48:53.404Z,10.56
2022-10-18T01:51:26.077Z,10.53
2022-10-18T01:53:55.766Z,10.56
2022-10-18T01:56:34.263Z,10.56
2022-10-18T01:59:24.263Z,10.54
2022-10-18T02:02:01.863Z,10.53
2022-10-18T02:04:35.974Z,10.55
2022-10-18T02:07:14.102Z,10.53
2022-10-18T02:09:50.792Z,10.48
2022-10-18T02:12:21.940Z,10.46
2022-10-18T02:14:52.023Z,10.47
2022-10-18T02:17:22.772Z,10.45
2022-10-18T02:19:54.857Z,10.42
2022-10-18T02:22:25.782Z,10.40
2022-10-18T02:24:58.465Z,10.39
2022-10-18T02:27:27.713Z,10.35
2022-10-18T02:29:56.489Z,10.29
2022-10-18T02:32:33.776Z,10.24
2022-10-18T02:35:09.160Z,10.26
2022-10-18T02:37:40.865Z,10.25
2022-10-18T02:40:11.714Z,10.25
2022-10-18T02:42:45.154Z,10.24
2022-10-18T02:45:14.762Z,10.23
2022-10-18T02:47:44.794Z,10.20
2022-10-18T02:50:13.653Z,10.19
2022-10-18T02:52:42.234Z,10.17
2022-10-18T02:55:11.374Z,10.17
2022-10-18T02:57:39.961Z,10.15
2022-10-18T03:00:09.842Z,10.13
2022-10-18T03:02:38.452Z,10.11
2022-10-18T03:05:09.113Z,10.01
2022-10-18T03:07:37.702Z,9.95
2022-10-18T03:10:06.980Z,9.96
2022-10-18T03:12:35.623Z,9.83
2022-10-18T03:15:04.433Z,9.96
2022-10-18T03:17:33.232Z,9.94
2022-10-18T03:20:01.979Z,9.98
2022-10-18T03:22:32.004Z,9.98
2022-10-18T03:25:00.621Z,9.98
2022-10-18T03:27:29.954Z,9.98
2022-10-18T03:29:59.344Z,9.96
2022-10-18T03:32:27.982Z,9.95
2022-10-18T03:34:56.581Z,9.93
2022-10-18T03:37:25.371Z,9.86
2022-10-18T03:39:55.483Z,9.84
2022-10-18T03:42:24.283Z,9.82
2022-10-18T03:44:52.890Z,9.82
2022-10-18T03:47:21.736Z,9.82
2022-10-18T03:49:53.211Z,9.85
2022-10-18T03:52:25.097Z,9.88
2022-10-18T03:54:55.082Z,9.87
2022-10-18T03:57:23.741Z,9.84
2022-10-18T03:59:52.352Z,9.84
2022-10-18T04:02:20.954Z,9.81
2022-10-18T04:04:49.694Z,9.78
2022-10-18T04:07:18.333Z,9.75
2022-10-18T04:09:46.855Z,9.75
2022-10-18T04:12:16.939Z,9.75
2022-10-18T04:14:45.533Z,9.74
2022-10-18T04:17:14.401Z,9.75
2022-10-18T04:19:42.991Z,9.73
2022-10-18T04:22:12.881Z,9.72
2022-10-18T04:24:41.533Z,9.70
2022-10-18T04:27:10.524Z,9.67
2022-10-18T04:29:40.500Z,9.68
2022-10-18T04:32:09.181Z,9.67
2022-10-18T04:34:37.830Z,9.68
2022-10-18T04:37:06.612Z,9.66
2022-10-18T04:39:35.345Z,9.56
2022-10-18T04:42:04.037Z,9.62
2022-10-18T04:44:32.606Z,9.63
2022-10-18T04:47:03.494Z,9.64
2022-10-18T04:49:32.084Z,9.61
2022-10-18T04:52:00.643Z,9.64
2022-10-18T04:54:29.417Z,9.65
2022-10-18T04:56:57.974Z,9.71
2022-10-18T04:59:26.691Z,9.64
2022-10-18T05:01:55.327Z,9.65
2022-10-18T05:04:25.521Z,9.63
2022-10-18T05:06:54.091Z,9.59
2022-10-18T05:09:25.515Z,9.59
2022-10-18T05:11:54.104Z,9.59
2022-10-18T05:14:22.673Z,9.59
2022-10-18T05:16:51.324Z,9.56
2022-10-18T05:19:19.956Z,9.52
2022-10-18T05:21:50.043Z,9.50
2022-10-18T05:24:19.634Z,9.50
2022-10-18T05:26:49.871Z,9.49
2022-10-18T05:29:18.594Z,9.47
2022-10-18T05:31:47.292Z,9.50
2022-10-18T05:34:15.923Z,9.51
2022-10-18T05:36:44.763Z,9.51
2022-10-18T05:39:14.804Z,9.51
2022-10-18T05:41:43.694Z,9.53
2022-10-18T05:44:12.303Z,9.59
2022-10-18T05:46:40.902Z,9.64
2022-10-18T05:49:09.496Z,9.68
2022-10-18T05:51:38.095Z,9.71
2022-10-18T05:54:06.544Z,9.77
2022-10-18T05:56:36.702Z,9.84
2022-10-18T05:59:10.928Z,9.88
2022-10-18T06:01:39.851Z,10.02
2022-10-18T06:04:10.325Z,10.15
2022-10-18T06:06:39.456Z,10.31
2022-10-18T06:09:09.344Z,10.44
2022-10-18T06:11:39.474Z,10.58
2022-10-18T06:14:09.544Z,10.68
2022-10-18T06:16:38.527Z,10.79
2022-10-18T06:19:07.110Z,10.97
2022-10-18T06:21:35.902Z,11.10
2022-10-18T06:24:04.467Z,11.26
2022-10-18T06:26:33.273Z,11.42
2022-10-18T06:29:03.415Z,11.57
2022-10-18T06:31:32.167Z,11.71
2022-10-18T06:34:01.194Z,11.89
2022-10-18T06:36:30.052Z,11.99
2022-10-18T06:39:00.159Z,12.12
2022-10-18T06:41:28.926Z,12.24
2022-10-18T06:44:13.647Z,12.34
2022-10-18T06:46:42.197Z,12.50
2022-10-18T06:49:13.096Z,12.62
2022-10-18T06:51:45.408Z,12.74
2022-10-18T06:54:17.825Z,12.80
2022-10-18T06:56:48.015Z,12.90
2022-10-18T06:59:18.423Z,12.96
2022-10-18T07:01:47.030Z,13.02
2022-10-18T07:04:15.565Z,13.10
2022-10-18T07:06:44.206Z,13.22
2022-10-18T07:09:12.815Z,13.29
2022-10-18T07:11:41.371Z,13.40
2022-10-18T07:14:13.936Z,13.54
2022-10-18T07:16:46.119Z,13.59
2022-10-18T07:19:15.167Z,13.71
2022-10-18T07:21:43.665Z,13.86
2022-10-18T07:24:12.358Z,14.01
2022-10-18T07:26:42.605Z,14.15
2022-10-18T07:29:13.382Z,14.27
2022-10-18T07:31:42.158Z,14.30
2022-10-18T07:34:15.020Z,14.32
2022-10-18T07:36:43.586Z,14.39
2022-10-18T07:39:12.148Z,14.48
2022-10-18T07:41:40.769Z,14.64
2022-10-18T07:44:09.289Z,14.74
2022-10-18T07:46:38.450Z,14.89
2022-10-18T07:49:07.150Z,14.99
2022-10-18T07:51:37.181Z,15.11
2022-10-18T07:54:05.791Z,15.25
2022-10-18T07:56:34.495Z,15.34
2022-10-18T07:59:03.094Z,15.44
2022-10-18T08:01:31.763Z,15.58
2022-10-18T08:04:04.670Z,15.65
2022-10-18T08:06:37.122Z,15.74
2022-10-18T08:09:06.002Z,15.81
2022-10-18T08:11:34.848Z,15.82
2022-10-18T08:14:03.391Z,15.97
2022-10-18T08:19:06.150Z,16.15
2022-10-18T08:21:34.909Z,16.26
2022-10-18T08:24:05.399Z,16.27
2022-10-18T08:26:34.091Z,16.43
2022-10-18T08:29:23.319Z,16.56
2022-10-18T08:31:51.534Z,16.72
2022-10-18T08:34:20.186Z,16.85
2022-10-18T08:36:48.795Z,16.97
2022-10-18T08:39:18.784Z,17.10
2022-10-18T08:42:09.613Z,17.16
2022-10-18T08:44:45.442Z,17.32
2022-10-18T08:47:18.303Z,17.43
2022-10-18T08:49:49.910Z,17.52
2022-10-18T08:52:28.270Z,17.59
2022-10-18T08:55:05.253Z,17.76
2022-10-18T08:57:34.561Z,17.90
2022-10-18T09:00:03.370Z,18.07
2022-10-18T09:02:50.983Z,18.22
2022-10-18T09:05:30.004Z,18.28
2022-10-18T09:08:17.401Z,18.36
2022-10-18T09:14:00.843Z,18.52
2022-10-18T09:16:41.256Z,18.58
2022-10-18T09:19:23.103Z,18.66
2022-10-18T09:21:54.417Z,18.74
2022-10-18T09:24:30.143Z,18.99
2022-10-18T09:27:06.403Z,19.20
2022-10-18T09:29:50.776Z,19.38
2022-10-18T09:32:32.916Z,19.36
2022-10-18T09:35:07.260Z,19.42
2022-10-18T09:37:36.912Z,19.48
2022-10-18T09:40:18.762Z,19.46
2022-10-18T09:42:57.203Z,19.47
2022-10-18T09:45:30.591Z,19.60
2022-10-18T09:48:08.874Z,19.80
2022-10-18T09:50:42.825Z,19.76
2022-10-18T09:53:21.386Z,19.88
2022-10-18T09:56:02.342Z,19.97
2022-10-18T09:58:41.990Z,20.01
2022-10-18T10:01:13.152Z,20.04
2022-10-18T10:03:43.237Z,20.20
2022-10-18T10:06:24.440Z,20.28
2022-10-18T10:09:00.254Z,20.51
2022-10-18T10:11:32.215Z,20.63
2022-10-18T10:14:10.934Z,20.60
2022-10-18T10:16:55.443Z,20.62
2022-10-18T10:19:32.994Z,20.75
2022-10-18T10:22:06.298Z,20.93
2022-10-18T10:24:44.667Z,20.97
2022-10-18T10:27:21.625Z,20.96
2022-10-18T10:29:58.227Z,21.06
2022-10-18T10:32:32.452Z,21.12
2022-10-18T10:35:01.363Z,21.22
2022-10-18T10:37:35.968Z,21.30
2022-10-18T10:40:20.294Z,21.35
2022-10-18T10:43:32.891Z,21.34
2022-10-18T10:46:08.982Z,21.36
2022-10-18T10:48:48.264Z,21.43
2022-10-18T10:51:20.513Z,21.64
2022-10-18T10:53:53.194Z,21.59
2022-10-18T10:56:28.434Z,21.62
2022-10-18T10:59:01.956Z,21.69
2022-10-18T11:01:34.825Z,21.67
2022-10-18T11:04:23.276Z,21.78
2022-10-18T11:07:02.295Z,21.81
2022-10-18T11:09:43.292Z,21.92
2022-10-18T11:12:26.125Z,21.93
2022-10-18T11:15:06.027Z,21.90
2022-10-18T11:17:41.471Z,21.94
2022-10-18T11:20:17.244Z,22.07
2022-10-18T11:22:53.933Z,22.07
2022-10-18T11:25:26.574Z,22.24
2022-10-18T11:28:00.575Z,22.33
2022-10-18T11:30:54.192Z,22.36
2022-10-18T11:34:03.530Z,22.21
2022-10-18T11:36:30.566Z,22.28
2022-10-18T11:39:06.801Z,22.46
2022-10-18T11:41:41.472Z,22.48
2022-10-18T11:44:22.173Z,22.41
2022-10-18T11:47:02.863Z,22.48
2022-10-18T11:49:49.780Z,22.59
2022-10-18T11:52:28.933Z,22.62
2022-10-18T11:55:07.161Z,22.64
2022-10-18T11:57:52.007Z,22.62
2022-10-18T12:00:34.905Z,22.59
2022-10-18T12:03:31.895Z,22.64
2022-10-18T12:06:06.205Z,22.67
2022-10-18T12:08:40.286Z,22.68
2022-10-18T12:11:15.736Z,22.77
2022-10-18T12:13:49.455Z,22.88
2022-10-18T12:16:38.836Z,22.80
2022-10-18T12:19:23.373Z,22.74
2022-10-18T12:21:59.333Z,22.74
2022-10-18T12:24:31.745Z,22.72
2022-10-18T12:27:02.805Z,22.65
2022-10-18T12:29:38.443Z,22.57
2022-10-18T12:32:11.661Z,22.58
2022-10-18T12:34:46.815Z,22.61
2022-10-18T12:37:41.726Z,22.66
2022-10-18T12:40:20.474Z,22.71
2022-10-18T12:42:52.734Z,22.75
2022-10-18T12:45:32.445Z,22.76
2022-10-18T12:48:03.573Z,22.73
2022-10-18T12:50:36.635Z,22.70
2022-10-18T12:53:20.389Z,22.71
2022-10-18T12:55:51.937Z,22.70
2022-10-18T12:58:28.039Z,22.66
2022-10-18T13:01:02.879Z,22.74
2022-10-18T13:03:53.516Z,22.64
2022-10-18T13:06:23.135Z,22.68
2022-10-18T13:09:06.087Z,22.76
2022-10-18T13:11:37.285Z,22.90
2022-10-18T13:14:27.636Z,23.00
2022-10-18T13:17:02.713Z,22.89
2022-10-18T13:19:40.875Z,22.86
2022-10-18T13:22:30.803Z,22.87
2022-10-18T13:25:07.067Z,22.79
2022-10-18T13:27:48.370Z,22.53
2022-10-18T13:30:35.396Z,22.60
2022-10-18T13:33:22.428Z,22.58
2022-10-18T13:35:55.759Z,22.73
2022-10-18T13:38:42.655Z,22.82
2022-10-18T13:41:13.829Z,22.79
2022-10-18T13:44:10.614Z,22.58
2022-10-18T13:47:01.496Z,22.46
2022-10-18T13:49:42.394Z,22.46
2022-10-18T13:52:23.334Z,22.46
2022-10-18T13:55:07.563Z,22.33
2022-10-18T13:57:58.452Z,22.38
2022-10-18T14:00:49.145Z,22.20
2022-10-18T14:03:56.242Z,22.12
2022-10-18T14:06:28.138Z,22.00
2022-10-18T14:09:09.386Z,21.84
2022-10-18T14:11:53.588Z,21.68
2022-10-18T14:14:30.144Z,21.53
2022-10-18T14:17:08.695Z,21.36
2022-10-18T14:19:42.989Z,21.27
2022-10-18T14:22:17.145Z,21.09
2022-10-18T14:24:49.978Z,20.97
2022-10-18T14:27:20.797Z,20.86
2022-10-18T14:29:51.006Z,20.73
2022-10-18T14:32:29.805Z,20.69
2022-10-18T14:35:20.598Z,20.64
2022-10-18T14:37:50.057Z,20.61
2022-10-18T14:40:34.595Z,20.53
2022-10-18T14:43:04.725Z,20.42
2022-10-18T14:45:33.386Z,20.40
2022-10-18T14:48:18.939Z,20.34
2022-10-18T14:50:50.919Z,20.29
2022-10-18T14:53:23.769Z,20.22
2022-10-18T14:55:57.039Z,20.18
2022-10-18T14:58:25.640Z,20.13
2022-10-18T15:00:55.384Z,20.05
2022-10-18T15:03:28.600Z,20.03
2022-10-18T15:06:00.321Z,19.98
2022-10-18T15:08:36.983Z,19.92
2022-10-18T15:11:10.464Z,19.86
2022-10-18T15:13:49.649Z,19.77
2022-10-18T15:16:20.255Z,19.67
2022-10-18T15:19:03.608Z,19.61
2022-10-18T15:21:33.350Z,19.55
2022-10-18T15:24:24.697Z,19.38
2022-10-18T15:26:55.633Z,19.04
2022-10-18T15:29:25.237Z,18.76
2022-10-18T15:31:53.776Z,18.48
2022-10-18T15:34:26.191Z,18.23
2022-10-18T15:36:56.880Z,18.05
2022-10-18T15:39:31.013Z,17.86
2022-10-18T15:42:01.111Z,17.67
2022-10-18T15:44:35.967Z,17.50
2022-10-18T15:47:21.671Z,17.39
2022-10-18T15:49:56.858Z,17.23
2022-10-18T15:52:39.202Z,17.04
2022-10-18T15:55:28.983Z,16.88
2022-10-18T15:58:04.502Z,16.80
2022-10-18T16:00:33.276Z,16.73
2022-10-18T16:03:01.897Z,16.62
2022-10-18T16:05:31.993Z,16.49
2022-10-18T16:08:01.979Z,16.43
2022-10-18T16:10:30.878Z,16.30
2022-10-18T16:12:59.376Z,16.31
2022-10-18T16:15:28.141Z,16.31
2022-10-18T16:17:56.730Z,16.25
2022-10-18T16:20:27.034Z,16.25
2022-10-18T16:22:57.450Z,16.20
2022-10-18T16:25:25.998Z,16.06
2022-10-18T16:27:54.671Z,15.92
2022-10-18T16:30:36.179Z,15.85
2022-10-18T16:33:04.831Z,15.81
2022-10-18T16:35:34.561Z,15.81
2022-10-18T16:38:04.631Z,15.69
2022-10-18T16:40:35.433Z,15.63
2022-10-18T16:43:06.490Z,15.59
2022-10-18T16:45:35.031Z,15.49
2022-10-18T16:48:04.558Z,15.37
2022-10-18T16:50:35.346Z,15.27
2022-10-18T16:53:05.881Z,15.22
2022-10-18T16:55:34.528Z,15.08
2022-10-18T16:58:03.090Z,15.04
2022-10-18T17:00:32.078Z,15.04
2022-10-18T17:03:00.792Z,14.94
2022-10-18T17:05:31.602Z,14.89
2022-10-18T17:08:00.307Z,14.82
2022-10-18T17:10:30.598Z,14.80
2022-10-18T17:12:59.287Z,14.83
2022-10-18T17:15:31.490Z,14.87
2022-10-18T17:18:05.439Z,14.86
2022-10-18T17:20:34.178Z,14.84
2022-10-18T17:23:02.777Z,14.83
2022-10-18T17:25:33.031Z,14.87
2022-10-18T17:28:01.618Z,14.82
2022-10-18T17:30:30.157Z,14.83
2022-10-18T17:32:58.904Z,14.82
2022-10-18T17:35:27.507Z,14.61
2022-10-18T17:37:56.306Z,14.51
2022-10-18T17:40:25.179Z,14.48
2022-10-18T17:42:55.569Z,14.29
2022-10-18T17:45:24.506Z,14.26
2022-10-18T17:47:53.070Z,14.29
2022-10-18T17:50:22.491Z,14.31
2022-10-18T17:52:51.166Z,14.31
2022-10-18T17:55:20.027Z,14.15
2022-10-18T17:57:48.600Z,13.99
2022-10-18T18:00:18.641Z,13.88
2022-10-18T18:02:47.978Z,13.82
2022-10-18T18:05:16.757Z,13.72
2022-10-18T18:07:46.367Z,13.72
2022-10-18T18:10:15.146Z,13.68
2022-10-18T18:12:45.707Z,13.62
2022-10-18T18:15:14.334Z,13.63
2022-10-18T18:17:56.784Z,13.70
2022-10-18T18:20:26.869Z,13.79
2022-10-18T18:22:55.480Z,13.81
2022-10-18T18:25:24.161Z,13.82
2022-10-18T18:27:52.741Z,13.85
2022-10-18T18:30:22.235Z,13.84
2022-10-18T18:32:52.213Z,13.84
2022-10-18T18:35:20.849Z,13.87
2022-10-18T18:37:51.771Z,13.90
2022-10-18T18:40:20.830Z,13.88
2022-10-18T18:43:12.123Z,13.88
2022-10-18T18:45:38.162Z,13.85
2022-10-18T18:48:08.428Z,13.80
2022-10-18T18:50:37.938Z,13.78
2022-10-18T18:53:06.504Z,13.77
2022-10-18T18:55:40.014Z,13.74
2022-10-18T18:58:08.850Z,13.68
2022-10-18T19:00:43.363Z,13.61
2022-10-18T19:03:14.679Z,13.46
2022-10-18T19:05:43.370Z,13.43
2022-10-18T19:08:11.934Z,13.41
2022-10-18T19:10:40.603Z,13.31
2022-10-18T19:13:09.130Z,13.31
2022-10-18T19:15:38.444Z,13.19
2022-10-18T19:18:07.040Z,13.13
2022-10-18T19:20:37.127Z,13.15
2022-10-18T19:23:05.760Z,13.16
2022-10-18T19:25:34.323Z,13.12
2022-10-18T19:28:02.992Z,13.05
2022-10-18T19:30:31.508Z,13.03
2022-10-18T19:33:04.799Z,13.09
2022-10-18T19:35:33.399Z,13.12
2022-10-18T19:38:03.382Z,13.10
2022-10-18T19:40:32.429Z,13.04
2022-10-18T19:43:01.051Z,13.04
2022-10-18T19:45:29.644Z,13.01
2022-10-18T19:47:58.251Z,13.02
2022-10-18T19:53:02.361Z,12.99
2022-10-18T19:55:30.853Z,13.02
2022-10-18T19:57:59.469Z,13.05
2022-10-18T20:00:28.221Z,13.08
2022-10-18T20:02:56.829Z,13.13
2022-10-18T20:05:25.571Z,13.09
2022-10-18T20:07:54.189Z,13.06
2022-10-18T20:10:24.232Z,13.09
2022-10-18T20:12:52.901Z,13.00
2022-10-18T20:15:22.160Z,12.94
2022-10-18T20:17:50.815Z,12.80
2022-10-18T20:20:19.340Z,12.71
2022-10-18T20:22:48.080Z,12.73
2022-10-18T20:25:16.765Z,12.78
2022-10-18T20:27:46.911Z,12.82
2022-10-18T20:30:15.550Z,12.86
2022-10-18T20:32:44.372Z,12.88
2022-10-18T20:35:13.090Z,12.89
2022-10-18T20:37:42.122Z,12.90
2022-10-18T20:40:12.389Z,12.94
2022-10-18T20:42:41.248Z,12.92
2022-10-18T20:45:13.177Z,12.88
2022-10-18T20:47:41.850Z,12.91
2022-10-18T20:50:11.291Z,12.97
2022-10-18T20:52:40.312Z,12.99
2022-10-18T20:55:09.652Z,13.05
2022-10-18T20:57:38.449Z,13.08
2022-10-18T21:00:10.472Z,13.12
2022-10-18T21:02:40.529Z,13.09
2022-10-18T21:05:09.992Z,13.10
2022-10-18T21:07:38.552Z,12.99
2022-10-18T21:10:08.110Z,12.83
2022-10-18T21:12:36.935Z,12.78
2022-10-18T21:15:06.863Z,12.73
2022-10-18T21:17:35.440Z,12.64
2022-10-18T21:20:06.940Z,12.53
2022-10-18T21:22:35.724Z,12.55
2022-10-18T21:25:04.594Z,12.59
2022-10-18T21:27:33.309Z,12.62
2022-10-18T21:30:01.943Z,12.66
2022-10-18T21:32:30.887Z,12.70
2022-10-18T21:35:00.269Z,12.75
2022-10-18T21:37:30.301Z,12.86
2022-10-18T21:39:58.971Z,12.93
2022-10-18T21:42:27.521Z,12.99
2022-10-18T21:44:56.653Z,13.01
2022-10-18T21:47:25.253Z,13.07
2022-10-18T21:49:53.930Z,13.03
2022-10-18T21:52:22.460Z,13.01
2022-10-18T21:54:54.044Z,13.07
2022-10-18T21:57:23.291Z,13.03
2022-10-18T21:59:51.799Z,13.03
2022-10-18T22:02:20.370Z,13.04
2022-10-18T22:04:50.085Z,13.02
2022-10-18T22:07:18.664Z,13.05
2022-10-18T22:09:47.569Z,13.05
2022-10-18T22:12:17.511Z,12.87
2022-10-18T22:14:46.220Z,12.75
2022-10-18T22:17:14.769Z,12.69
2022-10-18T22:19:44.041Z,12.74
2022-10-18T22:22:15.713Z,12.56
2022-10-18T22:24:44.410Z,12.62
2022-10-18T22:27:12.862Z,12.63
2022-10-18T22:29:43.050Z,12.61
2022-10-18T22:32:11.623Z,12.61
2022-10-18T22:34:40.363Z,12.67
2022-10-18T22:37:08.953Z,12.72
2022-10-18T22:39:37.529Z,12.71
2022-10-18T22:42:06.420Z,12.44
2022-10-18T22:44:35.360Z,12.68
2022-10-18T22:47:05.580Z,12.74
2022-10-18T22:49:34.202Z,12.76
2022-10-18T22:52:03.243Z,12.76
2022-10-18T22:54:31.913Z,12.70
2022-10-18T22:57:00.479Z,12.66
2022-10-18T22:59:29.294Z,12.69
2022-10-18T23:01:57.690Z,12.71
2022-10-18T23:04:27.852Z,12.69
2022-10-18T23:06:56.589Z,12.67
2022-10-18T23:09:25.179Z,12.62
2022-10-18T23:11:53.908Z,12.63
2022-10-18T23:14:22.541Z,12.62
2022-10-18T23:16:51.220Z,12.38
2022-10-18T23:19:19.999Z,12.68
2022-10-18T23:21:50.429Z,12.73
2022-10-18T23:24:18.988Z,12.71
2022-10-18T23:26:47.630Z,12.69
2022-10-18T23:29:16.169Z,12.63
2022-10-18T23:31:44.913Z,12.73
2022-10-18T23:34:13.751Z,12.76
2022-10-18T23:39:12.850Z,12.82
2022-10-18T23:41:41.599Z,12.85
2022-10-18T23:44:11.861Z,12.88
2022-10-18T23:46:40.491Z,12.82
2022-10-18T23:49:09.138Z,12.75
2022-10-18T23:51:37.830Z,12.85
2022-10-18T23:54:06.312Z,12.81
2022-10-18T23:56:36.379Z,12.87
2022-10-18T23:59:05.112Z,12.94
